createdAt,value
2022-09-10T00:00:56.824Z,3.35
2022-09-10T00:05:58.789Z,4.07
2022-09-10T00:11:05.730Z,4.05
2022-09-10T00:16:11.242Z,4.90
2022-09-10T00:21:16.060Z,4.43
2022-09-10T00:26:26.699Z,5.13
2022-09-10T00:31:30.374Z,5.55
2022-09-10T00:36:41.908Z,5.85
2022-09-10T00:41:45.770Z,6.70
2022-09-10T00:46:50.861Z,6.10
2022-09-10T00:51:53.667Z,5.95
2022-09-10T00:56:59.394Z,6.65
2022-09-10T01:02:02.596Z,6.18
2022-09-10T01:07:07.571Z,6.43
2022-09-10T01:12:19.798Z,7.10
2022-09-10T01:17:26.094Z,6.80
2022-09-10T01:22:59.603Z,7.57
2022-09-10T01:28:08.727Z,7.43
2022-09-10T01:33:37.779Z,7.70
2022-09-10T01:38:41.957Z,7.70
2022-09-10T01:43:44.394Z,7.57
2022-09-10T01:48:54.047Z,7.80
2022-09-10T01:54:25.292Z,8.70
2022-09-10T01:59:34.350Z,8.48
2022-09-10T02:04:37.691Z,8.27
2022-09-10T02:09:40.443Z,9.13
2022-09-10T02:14:43.527Z,8.48
2022-09-10T02:19:58.893Z,8.70
2022-09-10T02:25:00.918Z,9.45
2022-09-10T02:30:03.160Z,10.57
2022-09-10T02:35:06.948Z,10.30
2022-09-10T02:40:10.755Z,10.85
2022-09-10T02:45:14.227Z,10.55
2022-09-10T02:50:16.408Z,10.88
2022-09-10T02:55:19.868Z,10.05
2022-09-10T03:00:22.602Z,11.90
2022-09-10T03:05:24.807Z,11.38
2022-09-10T03:10:26.920Z,12.20
2022-09-10T03:15:28.918Z,9.55
2022-09-10T03:20:31.113Z,12.13
2022-09-10T03:25:33.149Z,12.10
2022-09-10T03:30:36.487Z,13.07
2022-09-10T03:35:39.532Z,12.07
2022-09-10T03:40:41.546Z,13.02
2022-09-10T03:45:45.658Z,12.52
2022-09-10T03:50:49.316Z,13.05
2022-09-10T03:55:53.997Z,13.20
2022-09-10T04:00:56.167Z,12.95
2022-09-10T04:05:58.547Z,13.85
2022-09-10T04:11:04.667Z,12.65
2022-09-10T04:16:07.457Z,13.07
2022-09-10T04:21:09.904Z,13.52
2022-09-10T04:26:17.646Z,13.82
2022-09-10T04:31:22.711Z,14.25
2022-09-10T04:36:27.917Z,14.90
2022-09-10T04:41:30.031Z,14.40
2022-09-10T04:46:32.663Z,15.45
2022-09-10T04:51:36.554Z,14.75
2022-09-10T04:56:38.808Z,14.82
2022-09-10T05:01:41.167Z,16.30
2022-09-10T05:06:43.171Z,14.70
2022-09-10T05:11:49.864Z,15.35
2022-09-10T05:16:55.235Z,15.93
2022-09-10T05:21:57.507Z,15.18
2022-09-10T05:27:00.412Z,15.55
2022-09-10T05:32:02.820Z,15.18
2022-09-10T05:37:05.780Z,14.32
2022-09-10T05:42:08.728Z,14.35
2022-09-10T05:47:13.063Z,14.70
2022-09-10T05:52:15.664Z,15.35
2022-09-10T05:57:18.015Z,14.70
2022-09-10T06:02:24.142Z,13.93
2022-09-10T06:07:28.612Z,14.48
2022-09-10T06:12:30.764Z,13.13
2022-09-10T06:17:34.447Z,13.77
2022-09-10T06:22:37.651Z,13.73
2022-09-10T06:27:40.752Z,13.25
2022-09-10T06:32:43.216Z,12.68
2022-09-10T06:37:45.635Z,13.43
2022-09-10T06:42:49.683Z,13.38
2022-09-10T06:53:36.751Z,11.85
2022-09-10T06:58:40.288Z,12.23
2022-09-10T07:03:45.611Z,12.05
2022-09-10T07:08:49.117Z,11.02
2022-09-10T07:13:53.019Z,11.25
2022-09-10T07:19:00.264Z,10.43
2022-09-10T07:24:15.863Z,9.63
2022-09-10T07:29:31.250Z,7.68
2022-09-10T07:34:34.182Z,7.70
2022-09-10T07:39:36.845Z,7.32
2022-09-10T07:44:39.422Z,7.13
2022-09-10T07:49:41.709Z,6.82
2022-09-10T07:54:44.204Z,5.30
2022-09-10T07:59:47.421Z,5.70
2022-09-10T08:04:54.547Z,5.38
2022-09-10T08:09:57.407Z,4.32
2022-09-10T08:15:00.901Z,4.70
2022-09-10T08:20:07.559Z,5.30
2022-09-10T08:25:13.473Z,4.00
2022-09-10T08:30:17.536Z,4.25
2022-09-10T08:35:20.869Z,4.03
2022-09-10T08:40:23.608Z,3.50
2022-09-10T08:45:32.790Z,3.25
2022-09-10T08:50:44.536Z,2.80
2022-09-10T08:55:57.293Z,2.80
2022-09-10T09:01:04.204Z,2.53
2022-09-10T09:06:20.330Z,2.40
2022-09-10T09:11:29.687Z,2.25
2022-09-10T09:16:49.764Z,2.13
2022-09-10T09:21:56.536Z,2.75
2022-09-10T09:27:10.032Z,2.20
2022-09-10T09:37:29.261Z,2.50
2022-09-10T09:42:42.578Z,2.20
2022-09-10T09:47:46.165Z,1.83
2022-09-10T09:52:54.024Z,1.73
2022-09-10T09:58:20.929Z,2.10
2022-09-10T10:03:29.032Z,1.83
2022-09-10T10:08:37.678Z,1.80
2022-09-10T10:13:45.374Z,1.85
2022-09-10T10:18:48.131Z,1.60
2022-09-10T10:23:50.200Z,1.52
2022-09-10T10:28:58.531Z,1.17
2022-09-10T10:34:35.313Z,1.80
2022-09-10T10:40:01.130Z,1.83
2022-09-10T10:45:18.156Z,1.75
2022-09-10T10:50:36.038Z,1.58
2022-09-10T10:55:53.458Z,1.83
2022-09-10T11:01:02.828Z,1.67
2022-09-10T11:06:10.379Z,1.52
2022-09-10T11:11:18.648Z,1.60
2022-09-10T11:16:29.330Z,2.17
2022-09-10T11:21:39.197Z,2.80
2022-09-10T11:26:45.641Z,1.88
2022-09-10T11:31:56.892Z,2.08
2022-09-10T11:37:09.734Z,1.15
2022-09-10T11:42:19.241Z,1.20
2022-09-10T11:47:26.473Z,1.10
2022-09-10T11:52:31.648Z,1.30
2022-09-10T11:57:55.517Z,1.40
2022-09-10T12:03:35.029Z,1.10
2022-09-10T12:08:55.500Z,1.48
2022-09-10T12:13:58.729Z,1.52
2022-09-10T12:19:04.284Z,1.40
2022-09-10T12:24:25.747Z,1.35
2022-09-10T12:29:36.774Z,1.63
2022-09-10T12:34:40.196Z,1.70
2022-09-10T12:39:42.648Z,1.75
2022-09-10T12:44:45.884Z,1.85
2022-09-10T12:50:06.683Z,2.40
2022-09-10T12:55:31.892Z,1.98
2022-09-10T13:00:44.211Z,1.77
2022-09-10T13:05:50.321Z,1.92
2022-09-10T13:10:56.330Z,2.28
2022-09-10T13:15:58.570Z,2.78
2022-09-10T13:21:23.489Z,3.22
2022-09-10T13:26:28.248Z,3.40
2022-09-10T13:31:42.146Z,3.15
2022-09-10T13:36:59.837Z,3.90
2022-09-10T13:42:20.709Z,4.10
2022-09-10T13:47:31.340Z,4.57
2022-09-10T13:52:36.109Z,4.93
2022-09-10T13:57:45.051Z,5.10
2022-09-10T14:02:52.942Z,5.45
2022-09-10T14:07:57.412Z,5.45
2022-09-10T14:12:59.763Z,5.15
2022-09-10T14:18:01.911Z,4.60
2022-09-10T14:23:07.905Z,3.95
2022-09-10T14:28:15.959Z,2.90
2022-09-10T14:33:35.676Z,2.00
2022-09-10T14:38:40.200Z,2.55
2022-09-10T14:43:42.482Z,1.95
2022-09-10T14:49:01.266Z,2.00
2022-09-10T14:54:03.459Z,1.85
2022-09-10T14:59:15.250Z,1.95
2022-09-10T15:04:20.852Z,1.50
2022-09-10T15:09:23.977Z,1.70
2022-09-10T15:14:26.087Z,2.00
2022-09-10T15:19:28.267Z,2.50
2022-09-10T15:24:39.045Z,2.35
2022-09-10T15:29:57.775Z,2.58
2022-09-10T15:34:59.811Z,2.50
2022-09-10T15:40:03.279Z,2.40
2022-09-10T15:45:05.639Z,2.50
2022-09-10T15:50:09.748Z,2.00
2022-09-10T15:55:12.342Z,1.88
2022-09-10T16:00:14.659Z,1.33
2022-09-10T16:05:16.714Z,1.30
2022-09-10T16:10:18.708Z,1.10
2022-09-10T16:15:20.820Z,1.20
2022-09-10T16:20:22.765Z,1.67
2022-09-10T16:25:24.816Z,1.50
2022-09-10T16:30:26.772Z,1.75
2022-09-10T16:35:28.716Z,2.20
2022-09-10T16:40:30.735Z,1.92
2022-09-10T16:45:32.845Z,1.88
2022-09-10T16:50:35.053Z,2.00
2022-09-10T16:55:37.171Z,2.78
2022-09-10T17:00:40.526Z,1.20
2022-09-10T17:05:44.353Z,1.40
2022-09-10T17:10:46.549Z,1.30
2022-09-10T17:15:48.848Z,1.17
2022-09-10T17:20:52.454Z,1.27
2022-09-10T17:25:54.564Z,1.25
2022-09-10T17:30:56.741Z,1.33
2022-09-10T17:36:01.082Z,1.00
2022-09-10T17:41:04.369Z,2.30
2022-09-10T17:46:09.262Z,2.33
2022-09-10T17:51:17.599Z,2.10
2022-09-10T17:56:20.156Z,2.42
2022-09-10T18:01:28.333Z,2.50
2022-09-10T18:06:32.296Z,2.70
2022-09-10T18:11:37.476Z,2.67
2022-09-10T18:16:39.448Z,2.25
2022-09-10T18:21:43.710Z,2.13
2022-09-10T18:26:47.935Z,2.70
2022-09-10T18:31:55.784Z,2.83
2022-09-10T18:37:00.170Z,2.47
2022-09-10T18:42:02.354Z,2.10
2022-09-10T18:47:17.873Z,2.35
2022-09-10T18:52:29.165Z,2.42
2022-09-10T18:57:31.583Z,2.97
2022-09-10T19:02:33.652Z,3.58
2022-09-10T19:07:35.713Z,2.90
2022-09-10T19:12:37.761Z,2.63
2022-09-10T19:17:40.150Z,3.50
2022-09-10T19:22:42.808Z,3.28
2022-09-10T19:27:45.089Z,3.60
2022-09-10T19:32:47.124Z,3.22
2022-09-10T19:37:49.127Z,3.92
2022-09-10T19:42:51.125Z,2.70
2022-09-10T19:47:53.593Z,2.95
2022-09-10T19:52:55.947Z,3.97
2022-09-10T19:57:59.915Z,4.90
2022-09-10T20:03:02.068Z,3.35
2022-09-10T20:08:05.433Z,5.28
2022-09-10T20:13:08.273Z,3.95
2022-09-10T20:18:11.203Z,3.67
2022-09-10T20:23:13.179Z,5.05
2022-09-10T20:28:15.134Z,5.65
2022-09-10T20:33:17.083Z,5.10
2022-09-10T20:38:20.743Z,5.13
2022-09-10T20:43:22.709Z,5.28
2022-09-10T20:48:25.282Z,6.00
2022-09-10T20:53:27.841Z,5.50
2022-09-10T20:58:31.417Z,5.45
2022-09-10T21:03:33.538Z,5.13
2022-09-10T21:08:37.401Z,6.85
2022-09-10T21:13:47.395Z,6.97
2022-09-10T21:18:54.719Z,6.72
2022-09-10T21:24:05.851Z,8.40
2022-09-10T21:29:14.294Z,8.02
2022-09-10T21:34:17.369Z,6.38
2022-09-10T21:39:19.672Z,6.95
2022-09-10T21:44:23.027Z,7.43
2022-09-10T21:49:25.020Z,7.97
2022-09-10T21:54:27.039Z,8.20
2022-09-10T21:59:29.092Z,8.32
2022-09-10T22:04:31.045Z,7.25
2022-09-10T22:09:33.697Z,6.55
2022-09-10T22:14:35.724Z,6.70
2022-09-10T22:19:37.671Z,7.07
2022-09-10T22:24:39.685Z,5.85
2022-09-10T22:29:41.705Z,6.65
2022-09-10T22:34:43.975Z,6.00
2022-09-10T22:39:45.974Z,6.25
2022-09-10T22:44:48.103Z,6.80
2022-09-10T22:49:50.412Z,7.32
2022-09-10T22:54:52.354Z,7.45
2022-09-10T22:59:54.358Z,7.57
2022-09-10T23:04:57.190Z,7.43
2022-09-10T23:10:01.247Z,7.15
2022-09-10T23:15:03.396Z,8.20
2022-09-10T23:20:06.574Z,8.07
2022-09-10T23:25:09.000Z,7.75
2022-09-10T23:30:11.793Z,9.15
2022-09-10T23:35:13.805Z,7.90
2022-09-10T23:40:15.779Z,8.48
2022-09-10T23:45:17.723Z,7.78
2022-09-10T23:50:19.684Z,8.00
2022-09-10T23:55:21.687Z,8.32
